M I D A S
Marine Information and Data Acquisition System
Tripno 1722 of the Zeeleeuw from 2009-02-13 09:01:58 to 2009-02-13 12:51:45
Back to CruiseResearch ActivitiesStationsMapUnderway DataData graphs

EquipmentUnitsComment
TimeDGPSUTC
LatitudeDGPSDM.mWGS84
LongitudeDGPSDM.mWGS84
TemperatureSBE03/SBE38deg celciusITS90
ConductivitySBE21S/mITS90
SalinitySBE21 Practical Salinity Units
ChlorophylAChelsea fluorimeterg/lCalibrated in Aceton
Missing or incorrect values are displayed as -999
Sea surface data collected by the RV Zeeleeuw from 2009-02-13 09:01:47 to 2009-02-13 13:00:09
Time Latitude Longitude Temperature Conductivity Salinity ChlorophylA
2009-02-13 09:02:52 51°13.675 2°55.919 -999 0.016687 0.090092 -1.244337
2009-02-13 09:03:52 51°13.699 2°55.843 -999 4.179698 31.33212 0.427218
2009-02-13 09:04:52 51°13.706 2°55.752 -999 2.105713 21.168802 8.367102
2009-02-13 09:05:50 51°13.712 2°55.736 -999 2.08702 21.363568 8.645695
2009-02-13 09:06:49 51°13.75 2°55.724 -999 1.935606 19.747536 8.43675
2009-02-13 09:07:49 51°13.827 2°55.643 -999 1.780934 18.057804 8.123334
2009-02-13 09:08:49 51°13.948 2°55.548 -999 1.685966 16.990622 7.635797
2009-02-13 09:09:49 51°14.079 2°55.453 -999 1.859297 18.933564 7.252733
2009-02-13 09:10:49 51°14.207 2°55.336 -999 2.103343 21.705228 6.208011
2009-02-13 09:11:49 51°14.315 2°55.165 -999 2.122661 21.970605 5.51153
2009-02-13 09:12:49 51°14.416 2°54.969 -999 2.319399 24.233015 5.790122
2009-02-13 09:13:49 51°14.556 2°54.832 -999 2.656951 28.095186 6.451779
2009-02-13 09:14:49 51°14.721 2°54.762 -999 2.736489 29.044874 6.730372
2009-02-13 09:15:49 51°14.89 2°54.676 -999 2.821213 30.065222 6.97414
2009-02-13 09:16:49 51°15.059 2°54.592 -999 2.901398 31.013778 7.461677
2009-02-13 09:17:49 51°15.227 2°54.509 -999 2.922507 31.248779 7.183084
2009-02-13 09:18:49 51°15.399 2°54.451 -999 2.930268 31.340402 6.416955
2009-02-13 09:19:49 51°15.573 2°54.452 -999 2.924163 31.253243 6.660724
2009-02-13 09:20:49 51°15.739 2°54.45 -999 2.927889 31.397523 6.834844
2009-02-13 09:21:49 51°15.864 2°54.453 -999 2.916921 31.301783 6.521427
2009-02-13 09:22:49 51°15.969 2°54.481 -999 2.90378 31.197178 5.894594
2009-02-13 09:23:49 51°16.072 2°54.51 -999 2.888777 31.070234 5.163289
2009-02-13 09:24:49 51°16.179 2°54.541 -999 2.892912 30.801289 4.640929
2009-02-13 09:25:49 51°16.278 2°54.562 -999 2.898814 31.192223 4.536456
2009-02-13 09:26:49 51°16.323 2°54.48 -999 2.89602 31.212164 4.431984
2009-02-13 09:27:48 51°16.296 2°54.361 -999 2.901608 31.294826 4.362336
2009-02-13 09:28:48 51°16.27 2°54.306 -999 2.916302 31.462123 4.39716
2009-02-13 09:29:49 51°16.26 2°54.28 -999 2.936687 31.676075 4.815049
2009-02-13 09:30:49 51°16.252 2°54.256 -999 2.944551 31.76493 4.849873
2009-02-13 09:31:49 51°16.245 2°54.231 -999 2.94155 31.734009 4.710577
2009-02-13 09:32:48 51°16.238 2°54.206 -999 2.935031 31.669846 4.780225
2009-02-13 09:33:49 51°16.23 2°54.181 -999 2.926442 31.584844 4.362336
2009-02-13 09:34:49 51°16.221 2°54.156 -999 2.921269 31.536647 4.431984
2009-02-13 09:35:49 51°16.212 2°54.131 -999 2.918578 31.511306 4.22304
2009-02-13 09:36:49 51°16.203 2°54.104 -999 2.917751 31.507201 4.327512
2009-02-13 09:37:50 51°16.183 2°54.096 -999 2.921372 31.54557 4.466808
2009-02-13 09:38:52 51°16.15 2°54.099 -999 2.936273 31.697184 5.128465
2009-02-13 09:39:50 51°16.169 2°54.087 -999 2.926029 31.590495 4.710577
2009-02-13 09:40:49 51°16.192 2°54.136 -999 2.936066 31.693752 4.710577
2009-02-13 09:41:49 51°16.223 2°54.183 -999 2.902436 31.349561 4.292688
2009-02-13 09:42:49 51°16.24 2°54.236 -999 2.909369 31.427427 4.327512
2009-02-13 09:43:49 51°16.255 2°54.271 -999 2.904299 31.375594 4.362336
2009-02-13 09:44:49 51°16.259 2°54.297 -999 2.909576 31.432771 4.466808
2009-02-13 09:45:49 51°16.258 2°54.309 -999 2.906368 31.401229 4.362336
2009-02-13 09:46:48 51°16.255 2°54.311 -999 2.903989 31.377637 4.362336
2009-02-13 09:47:49 51°16.249 2°54.306 -999 2.902333 31.361722 4.327512
2009-02-13 09:48:49 51°16.242 2°54.295 -999 2.898504 31.32276 4.257864
2009-02-13 09:49:49 51°16.233 2°54.282 -999 2.8954 31.290517 4.22304
2009-02-13 09:50:49 51°16.223 2°54.266 -999 2.893745 31.273638 4.153392
2009-02-13 09:51:49 51°16.212 2°54.248 -999 2.891365 31.248119 4.153392
2009-02-13 09:52:49 51°16.201 2°54.228 -999 2.885984 31.18396 4.153392
2009-02-13 09:53:49 51°16.189 2°54.207 -999 2.889296 31.227255 4.118568
2009-02-13 09:54:49 51°16.176 2°54.184 -999 2.889089 31.225741 4.083744
2009-02-13 09:55:49 51°16.164 2°54.161 -999 2.889813 31.232471 4.118568
2009-02-13 09:56:49 51°16.15 2°54.147 -999 2.889089 31.224787 4.118568
2009-02-13 09:57:48 51°16.153 2°54.166 -999 2.886605 31.201843 4.257864
2009-02-13 09:58:49 51°16.187 2°54.212 -999 2.874086 31.070597 3.909623
2009-02-13 09:59:48 51°16.228 2°54.268 -999 2.88226 31.156679 4.466808
2009-02-13 10:00:49 51°16.258 2°54.295 -999 2.882053 31.155162 4.327512
2009-02-13 10:01:49 51°16.278 2°54.292 -999 2.875845 31.088726 3.979271
2009-02-13 10:02:49 51°16.29 2°54.275 -999 2.879363 31.123077 3.735503
2009-02-13 10:03:49 51°16.298 2°54.251 -999 2.882156 31.150686 3.735503
2009-02-13 10:04:49 51°16.301 2°54.222 -999 2.886191 31.192143 3.770327
2009-02-13 10:05:49 51°16.301 2°54.192 -999 2.888882 31.223273 4.04892
2009-02-13 10:06:49 51°16.298 2°54.159 -999 2.888364 31.22187 4.118568
2009-02-13 10:07:49 51°16.293 2°54.125 -999 2.88764 31.213231 4.188216
2009-02-13 10:08:49 51°16.286 2°54.09 -999 2.887019 31.20678 4.083744
2009-02-13 10:09:49 51°16.3 2°54.053 -999 2.88764 31.212278 4.22304
2009-02-13 10:10:49 51°16.315 2°54.075 -999 2.902333 31.370339 4.954345
2009-02-13 10:11:48 51°16.295 2°54.15 -999 2.903264 31.384323 4.989169
2009-02-13 10:12:49 51°16.279 2°54.253 -999 2.896435 31.30955 4.919521
2009-02-13 10:13:49 51°16.251 2°54.301 -999 2.887847 31.220468 4.710577
2009-02-13 10:14:49 51°16.222 2°54.318 -999 2.882156 31.160205 4.466808
2009-02-13 10:15:49 51°16.196 2°54.322 -999 2.875017 31.085505 4.292688
2009-02-13 10:16:49 51°16.173 2°54.318 -999 2.871706 31.050758 4.118568
2009-02-13 10:17:49 51°16.152 2°54.31 -999 2.863739 30.968052 4.014096
2009-02-13 10:18:49 51°16.134 2°54.297 -999 2.853807 30.865648 3.839975
2009-02-13 10:19:49 51°16.118 2°54.281 -999 2.850599 30.833052 3.735503
2009-02-13 10:20:49 51°16.103 2°54.263 -999 2.846771 30.793988 3.700679
2009-02-13 10:21:49 51°16.088 2°54.243 -999 2.843357 30.758912 3.561383
2009-02-13 10:22:48 51°16.074 2°54.223 -999 2.839943 30.72383 3.526559
2009-02-13 10:23:49 51°16.065 2°54.234 -999 2.838081 30.707257 3.700679
2009-02-13 10:24:49 51°16.097 2°54.241 -999 2.831356 30.641116 3.526559
2009-02-13 10:25:49 51°16.152 2°54.26 -999 2.83715 30.702732 4.118568
2009-02-13 10:26:49 51°16.195 2°54.31 -999 2.854428 30.881559 4.257864
2009-02-13 10:27:49 51°16.215 2°54.369 -999 2.858773 30.923952 4.362336
2009-02-13 10:28:49 51°16.212 2°54.398 -999 2.8566 30.897083 3.874799
2009-02-13 10:29:49 51°16.203 2°54.408 -999 2.852151 30.849678 3.631031
2009-02-13 10:30:49 51°16.194 2°54.408 -999 2.849151 30.820491 3.561383
2009-02-13 10:31:49 51°16.183 2°54.402 -999 2.850599 30.837772 3.665855
2009-02-13 10:32:49 51°16.171 2°54.39 -999 2.84822 30.814099 3.700679
2009-02-13 10:33:49 51°16.159 2°54.374 -999 2.84822 30.815986 3.735503
2009-02-13 10:34:49 51°16.146 2°54.355 -999 2.847599 30.808579 3.770327
2009-02-13 10:35:49 51°16.134 2°54.334 -999 2.846461 30.797829 3.805151
2009-02-13 10:36:49 51°16.121 2°54.311 -999 2.847392 30.807053 3.805151
2009-02-13 10:37:49 51°16.109 2°54.294 -999 2.849461 30.832689 3.909623
2009-02-13 10:38:48 51°16.11 2°54.302 -999 2.834253 30.667226 3.456911
2009-02-13 10:39:49 51°16.152 2°54.303 -999 2.823804 30.559443 3.28279
2009-02-13 10:40:49 51°16.209 2°54.308 -999 2.835391 30.681745 4.466808
2009-02-13 10:41:49 51°16.254 2°54.284 -999 2.841909 30.770844 4.292688
2009-02-13 10:42:49 51°16.276 2°54.258 -999 2.841909 30.788775 4.39716
2009-02-13 10:43:49 51°16.286 2°54.225 -999 2.835805 30.722455 3.909623
2009-02-13 10:44:49 51°16.286 2°54.189 -999 2.836322 30.734292 3.979271
2009-02-13 10:45:49 51°16.282 2°54.151 -999 2.835288 30.722873 3.805151
2009-02-13 10:46:49 51°16.28 2°54.112 -999 2.834564 30.713278 3.596207
2009-02-13 10:47:49 51°16.283 2°54.08 -999 2.838288 30.750233 3.874799
2009-02-13 10:48:49 51°16.286 2°54.06 -999 2.843875 30.814152 4.083744
2009-02-13 10:49:49 51°16.287 2°54.054 -999 2.844496 30.82157 4.014096
2009-02-13 10:50:49 51°16.284 2°54.057 -999 2.842944 30.805861 3.909623
2009-02-13 10:51:49 51°16.28 2°54.067 -999 2.839012 30.766436 3.770327
2009-02-13 10:52:49 51°16.277 2°54.081 -999 2.83746 30.751665 3.805151
2009-02-13 10:53:49 51°16.277 2°54.102 -999 2.831253 30.685967 3.596207
2009-02-13 10:54:49 51°16.277 2°54.13 -999 2.82908 30.664711 3.631031
2009-02-13 10:55:49 51°16.275 2°54.162 -999 2.827942 30.656758 3.700679
2009-02-13 10:56:49 51°16.274 2°54.197 -999 2.824321 30.620064 3.631031
2009-02-13 10:57:49 51°16.274 2°54.233 -999 2.821114 30.587369 3.561383
2009-02-13 10:58:49 51°16.275 2°54.269 -999 2.818321 30.558676 3.526559
2009-02-13 10:59:49 51°16.277 2°54.305 -999 2.815735 30.536206 3.596207
2009-02-13 11:00:49 51°16.278 2°54.343 -999 2.813666 30.51616 3.665855
2009-02-13 11:01:49 51°16.278 2°54.382 -999 2.812321 30.503832 3.665855
2009-02-13 11:02:49 51°16.281 2°54.418 -999 2.810045 30.481307 3.665855
2009-02-13 11:03:49 51°16.289 2°54.441 -999 2.808803 30.468337 3.735503
2009-02-13 11:04:49 51°16.298 2°54.451 -999 2.807665 30.455667 3.735503
2009-02-13 11:05:49 51°16.307 2°54.455 -999 2.806527 30.44487 3.700679
2009-02-13 11:06:49 51°16.315 2°54.458 -999 2.805803 30.438083 3.665855
2009-02-13 11:07:49 51°16.318 2°54.456 -999 2.804872 30.42695 3.665855
2009-02-13 11:08:49 51°16.319 2°54.45 -999 2.804045 30.419861 3.665855
2009-02-13 11:09:49 51°16.318 2°54.441 -999 2.803527 30.414612 3.665855
2009-02-13 11:10:49 51°16.314 2°54.43 -999 2.803527 30.414612 3.631031
2009-02-13 11:11:49 51°16.309 2°54.419 -999 2.803217 30.410901 3.631031
2009-02-13 11:12:49 51°16.302 2°54.407 -999 2.80301 30.411233 3.700679
2009-02-13 11:13:49 51°16.295 2°54.395 -999 2.802182 30.403207 3.700679
2009-02-13 11:14:49 51°16.288 2°54.382 -999 2.801769 30.401065 3.770327
2009-02-13 11:15:49 51°16.28 2°54.369 -999 2.801872 30.401366 3.805151
2009-02-13 11:16:49 51°16.272 2°54.354 -999 2.801148 30.393641 3.770327
2009-02-13 11:17:49 51°16.263 2°54.339 -999 2.801665 30.400763 3.839975
2009-02-13 11:18:49 51°16.254 2°54.326 -999 2.801355 30.395181 3.770327
2009-02-13 11:19:49 51°16.245 2°54.311 -999 2.801148 30.393641 3.805151
2009-02-13 11:20:49 51°16.236 2°54.296 -999 2.801044 30.391469 3.735503
2009-02-13 11:21:49 51°16.228 2°54.283 -999 2.800631 30.385586 3.665855
2009-02-13 11:22:49 51°16.224 2°54.27 -999 2.800424 30.383112 3.735503
2009-02-13 11:23:49 51°16.225 2°54.259 -999 2.799803 30.378493 3.770327
2009-02-13 11:24:49 51°16.231 2°54.253 -999 2.80001 30.377229 3.665855
2009-02-13 11:25:49 51°16.238 2°54.257 -999 2.800217 30.380638 3.770327
2009-02-13 11:26:49 51°16.24 2°54.271 -999 2.799182 30.372005 3.874799
2009-02-13 11:27:49 51°16.234 2°54.291 -999 2.798148 30.360568 3.839975
2009-02-13 11:28:49 51°16.224 2°54.312 -999 2.796906 30.349459 3.944447
2009-02-13 11:29:49 51°16.218 2°54.33 -999 2.795975 30.34206 4.014096
2009-02-13 11:30:49 51°16.218 2°54.337 -999 2.795665 30.34115 4.04892
2009-02-13 11:31:49 51°16.221 2°54.335 -999 2.796803 30.355696 4.153392
2009-02-13 11:32:49 51°16.226 2°54.329 -999 2.797113 30.358474 4.118568
2009-02-13 11:33:49 51°16.231 2°54.321 -999 2.796286 30.349508 4.04892
2009-02-13 11:34:49 51°16.238 2°54.312 -999 2.795665 30.342084 4.014096
2009-02-13 11:35:49 51°16.245 2°54.3 -999 2.794527 30.33034 3.874799
2009-02-13 11:36:49 51°16.252 2°54.288 -999 2.793389 30.317663 3.944447
2009-02-13 11:37:49 51°16.258 2°54.273 -999 2.792872 30.310543 3.735503
2009-02-13 11:38:49 51°16.263 2°54.258 -999 2.792458 30.30746 3.805151
2009-02-13 11:39:49 51°16.268 2°54.241 -999 2.791941 30.302206 3.770327
2009-02-13 11:40:49 51°16.272 2°54.222 -999 2.791217 30.294477 3.770327
2009-02-13 11:41:49 51°16.276 2°54.206 -999 2.786044 30.230757 3.526559
2009-02-13 11:42:49 51°16.279 2°54.194 -999 2.790596 30.285188 3.561383
2009-02-13 11:43:49 51°16.28 2°54.186 -999 2.790803 30.287663 3.735503
2009-02-13 11:44:49 51°16.279 2°54.184 -999 2.790493 30.283951 3.735503
2009-02-13 11:45:49 51°16.276 2°54.184 -999 2.790596 30.285188 3.735503
2009-02-13 11:46:49 51°16.269 2°54.187 -999 2.790079 30.279002 3.700679
2009-02-13 11:47:49 51°16.26 2°54.19 -999 2.789458 30.273443 3.561383
2009-02-13 11:48:49 51°16.251 2°54.195 -999 2.789044 30.268495 3.422087
2009-02-13 11:49:49 51°16.242 2°54.202 -999 2.789044 30.268495 3.491735
2009-02-13 11:50:49 51°16.236 2°54.208 -999 2.789044 30.271291 3.596207
2009-02-13 11:51:49 51°16.231 2°54.215 -999 2.788837 30.27068 3.631031
2009-02-13 11:52:49 51°16.227 2°54.221 -999 2.788734 30.268511 3.526559
2009-02-13 11:53:49 51°16.224 2°54.227 -999 2.788527 30.266968 3.422087
2009-02-13 11:54:49 51°16.222 2°54.232 -999 2.788424 30.262935 3.317614
2009-02-13 11:55:49 51°16.22 2°54.238 -999 2.788424 30.262003 3.247966
2009-02-13 11:56:49 51°16.218 2°54.245 -999 2.788527 30.253926 2.969374
2009-02-13 11:57:49 51°16.216 2°54.252 -999 2.789044 30.259178 3.004198
2009-02-13 11:58:49 51°16.214 2°54.26 -999 2.789251 30.256996 2.830078
2009-02-13 11:59:49 51°16.212 2°54.27 -999 2.78863 30.252369 2.969374
2009-02-13 12:00:49 51°16.209 2°54.28 -999 2.78863 30.251438 2.864902
2009-02-13 12:01:49 51°16.206 2°54.29 -999 2.788837 30.252049 2.830078
2009-02-13 12:02:49 51°16.204 2°54.3 -999 2.78863 30.252369 2.899726
2009-02-13 12:03:49 51°16.203 2°54.307 -999 2.787803 30.248992 3.073846
2009-02-13 12:04:49 51°16.204 2°54.309 -999 2.787286 30.250257 3.143494
2009-02-13 12:05:49 51°16.207 2°54.309 -999 2.787906 30.259544 3.422087
2009-02-13 12:06:49 51°16.211 2°54.307 -999 2.789355 30.280597 3.805151
2009-02-13 12:07:49 51°16.215 2°54.304 -999 2.789251 30.279359 3.770327
2009-02-13 12:08:49 51°16.219 2°54.3 -999 2.788941 30.273782 3.561383
2009-02-13 12:09:49 51°16.224 2°54.298 -999 2.78801 30.261713 3.178318
2009-02-13 12:10:49 51°16.229 2°54.297 -999 2.787596 30.246518 2.830078
2009-02-13 12:11:49 51°16.235 2°54.297 -999 2.787906 30.242781 2.76043
2009-02-13 12:12:49 51°16.24 2°54.298 -999 2.788527 30.248339 2.725606
2009-02-13 12:13:49 51°16.246 2°54.3 -999 2.78832 30.246797 2.795254
2009-02-13 12:14:49 51°16.252 2°54.303 -999 2.78801 30.244018 2.830078
2009-02-13 12:15:49 51°16.257 2°54.305 -999 2.787803 30.241545 2.864902
2009-02-13 12:16:49 51°16.263 2°54.307 -999 2.787906 30.248367 3.073846
2009-02-13 12:17:49 51°16.275 2°54.309 -999 2.788631 30.260751 3.143494
2009-02-13 12:18:49 51°16.305 2°54.351 -999 2.792665 30.301538 3.387263
2009-02-13 12:19:49 51°16.274 2°54.483 -999 2.803631 30.413978 3.387263
2009-02-13 12:20:49 51°16.126 2°54.536 -999 2.798044 30.357463 3.631031
2009-02-13 12:21:48 51°15.953 2°54.516 -999 2.793906 30.323849 3.874799
2009-02-13 12:22:49 51°15.78 2°54.41 -999 2.789148 30.272528 3.352439
2009-02-13 12:23:49 51°15.606 2°54.303 -999 2.788527 30.266036 3.28279
2009-02-13 12:24:49 51°15.43 2°54.213 -999 2.787079 30.243127 3.213142
2009-02-13 12:25:49 51°15.268 2°54.148 -999 2.79701 30.313382 2.864902
2009-02-13 12:26:49 51°15.188 2°54.072 -999 2.790182 30.246718 3.456911
2009-02-13 12:27:49 51°15.166 2°53.972 -999 2.781492 30.156843 3.631031
2009-02-13 12:28:48 51°15.186 2°53.887 -999 2.778699 30.131821 3.526559
2009-02-13 12:29:49 51°15.231 2°53.851 -999 2.778079 30.125332 3.491735
2009-02-13 12:30:49 51°15.266 2°53.864 -999 2.781596 30.164575 3.422087
2009-02-13 12:31:49 51°15.285 2°53.899 -999 2.789354 30.239621 3.073846
2009-02-13 12:32:49 51°15.291 2°53.936 -999 2.798147 30.289739 2.481837
2009-02-13 12:33:49 51°15.289 2°53.971 -999 2.802389 30.337553 2.377365
2009-02-13 12:34:49 51°15.283 2°54.005 -999 2.803837 30.343659 2.342541
2009-02-13 12:35:48 51°15.276 2°54.037 -999 2.804871 30.334595 2.203245
2009-02-13 12:36:49 51°15.27 2°54.072 -999 2.796181 30.247722 2.342541
2009-02-13 12:37:48 51°15.263 2°54.106 -999 2.790699 30.218517 2.690782
2009-02-13 12:38:49 51°15.259 2°54.14 -999 2.797216 30.283279 2.621133
2009-02-13 12:39:49 51°15.256 2°54.171 -999 2.786251 30.188622 2.830078
2009-02-13 12:40:49 51°15.253 2°54.204 -999 2.784596 30.182778 3.039022
2009-02-13 12:41:49 51°15.244 2°54.242 -999 2.789768 30.246425 3.28279
2009-02-13 12:42:49 51°15.225 2°54.274 -999 2.786458 30.205948 3.143494
2009-02-13 12:43:49 51°15.195 2°54.295 -999 2.782837 30.174766 3.28279
2009-02-13 12:44:49 51°15.125 2°54.327 -999 2.783458 30.184968 3.352439
2009-02-13 12:45:49 51°14.991 2°54.349 -999 2.780768 30.15747 3.874799
2009-02-13 12:46:48 51°14.822 2°54.326 -999 2.775699 30.097832 3.805151
2009-02-13 12:47:49 51°14.668 2°54.478 -999 2.775699 30.08487 3.596207
2009-02-13 12:48:49 51°14.527 2°54.7 -999 2.753148 29.765371 3.247966
2009-02-13 12:49:49 51°14.41 2°54.96 -999 2.731322 29.488412 3.561383
2009-02-13 12:50:49 51°14.288 2°55.218 -999 2.780664 30.069257 4.362336
2009-02-13 12:51:53 51°14.145 2°55.391 -999 2.72377 29.304262 4.884697
2009-02-13 12:52:52 51°14.01 2°55.492 -999 2.550855 27.173717 5.407058
2009-02-13 12:53:52 51°13.895 2°55.581 -999 2.429066 25.677262 5.790122
2009-02-13 12:54:50 51°13.793 2°55.667 -999 2.452326 25.920316 5.929418
2009-02-13 12:55:50 51°13.712 2°55.788 -999 2.169876 22.579993 7.183084
2009-02-13 12:56:49 51°13.676 2°55.905 -999 0.046944 0.383944 -1.000568
2009-02-13 12:57:49 51°13.663 2°55.956 -999 0.035623 0.28808 -0.965744
2009-02-13 12:58:49 51°13.661 2°55.959 -999 0.033359 0.268989 -0.965744
2009-02-13 12:59:49 51°13.663 2°55.96 -999 0.030787 0.247283 -1.000568